sensor_id;sensor_type;location;lat;lon;timestamp;pressure;altitude;pressure_sealevel;temperature;humidity
37694;BME280;23531;50.122;8.644;2023-06-14T00:01:03;100223.16;;;20.40;37.19
37694;BME280;23531;50.122;8.644;2023-06-14T00:03:06;100226.44;;;20.22;37.64
37694;BME280;23531;50.122;8.644;2023-06-14T00:05:08;100229.75;;;20.14;38.10
37694;BME280;23531;50.122;8.644;2023-06-14T00:07:12;100225.13;;;20.14;37.67
37694;BME280;23531;50.122;8.644;2023-06-14T00:09:13;100215.19;;;20.49;36.79
37694;BME280;23531;50.122;8.644;2023-06-14T00:11:17;100228.00;;;20.53;36.44
37694;BME280;23531;50.122;8.644;2023-06-14T00:13:18;100224.69;;;20.56;36.11
37694;BME280;23531;50.122;8.644;2023-06-14T00:15:21;100222.78;;;20.62;35.93
37694;BME280;23531;50.122;8.644;2023-06-14T00:17:23;100222.50;;;20.58;36.20
37694;BME280;23531;50.122;8.644;2023-06-14T00:19:30;100223.59;;;20.57;36.12
37694;BME280;23531;50.122;8.644;2023-06-14T00:21:34;100227.34;;;20.72;35.61
37694;BME280;23531;50.122;8.644;2023-06-14T00:23:36;100226.56;;;20.66;36.03
37694;BME280;23531;50.122;8.644;2023-06-14T00:25:37;100221.94;;;20.61;36.09
37694;BME280;23531;50.122;8.644;2023-06-14T00:27:39;100226.97;;;20.39;36.92
37694;BME280;23531;50.122;8.644;2023-06-14T00:29:40;100224.97;;;20.55;36.34
37694;BME280;23531;50.122;8.644;2023-06-14T00:31:42;100226.38;;;20.52;36.61
37694;BME280;23531;50.122;8.644;2023-06-14T00:33:44;100222.28;;;20.50;36.20
37694;BME280;23531;50.122;8.644;2023-06-14T00:35:45;100230.69;;;20.58;35.78
37694;BME280;23531;50.122;8.644;2023-06-14T00:37:47;100226.31;;;20.62;35.92
37694;BME280;23531;50.122;8.644;2023-06-14T00:39:48;100224.69;;;20.61;35.80
37694;BME280;23531;50.122;8.644;2023-06-14T00:41:49;100225.84;;;20.45;36.20
37694;BME280;23531;50.122;8.644;2023-06-14T00:43:50;100221.47;;;20.49;35.52
37694;BME280;23531;50.122;8.644;2023-06-14T00:45:53;100229.16;;;20.37;36.42
37694;BME280;23531;50.122;8.644;2023-06-14T00:47:55;100226.44;;;20.37;36.11
37694;BME280;23531;50.122;8.644;2023-06-14T00:49:57;100222.88;;;20.42;35.81
37694;BME280;23531;50.122;8.644;2023-06-14T00:51:58;100225.84;;;20.45;36.14
37694;BME280;23531;50.122;8.644;2023-06-14T00:54:00;100228.03;;;20.43;35.87
37694;BME280;23531;50.122;8.644;2023-06-14T00:56:01;100225.56;;;20.47;35.89
37694;BME280;23531;50.122;8.644;2023-06-14T00:58:03;100221.47;;;20.49;35.70
37694;BME280;23531;50.122;8.644;2023-06-14T01:00:05;100227.47;;;20.51;35.77
37694;BME280;23531;50.122;8.644;2023-06-14T01:02:09;100231.34;;;20.30;36.46
37694;BME280;23531;50.122;8.644;2023-06-14T01:04:11;100228.63;;;20.40;35.69
37694;BME280;23531;50.122;8.644;2023-06-14T01:06:15;100232.94;;;20.46;35.93
37694;BME280;23531;50.122;8.644;2023-06-14T01:08:27;100229.69;;;20.39;35.98
37694;BME280;23531;50.122;8.644;2023-06-14T01:10:34;100228.66;;;20.20;36.27
37694;BME280;23531;50.122;8.644;2023-06-14T01:12:38;100232.72;;;20.22;36.82
37694;BME280;23531;50.122;8.644;2023-06-14T01:14:41;100233.00;;;20.26;36.31
37694;BME280;23531;50.122;8.644;2023-06-14T01:16:42;100229.75;;;20.19;36.34
37694;BME280;23531;50.122;8.644;2023-06-14T01:18:45;100227.84;;;20.19;36.28
37694;BME280;23531;50.122;8.644;2023-06-14T01:20:50;100231.38;;;20.20;36.25
37694;BME280;23531;50.122;8.644;2023-06-14T01:22:56;100239.00;;;20.23;36.09
37694;BME280;23531;50.122;8.644;2023-06-14T01:24:57;100238.72;;;20.24;35.59
37694;BME280;23531;50.122;8.644;2023-06-14T01:26:59;100241.19;;;20.21;36.18
37694;BME280;23531;50.122;8.644;2023-06-14T01:29:00;100233.84;;;20.16;36.16
37694;BME280;23531;50.122;8.644;2023-06-14T01:31:02;100233.03;;;20.16;36.13
37694;BME280;23531;50.122;8.644;2023-06-14T01:33:04;100227.59;;;20.06;36.45
37694;BME280;23531;50.122;8.644;2023-06-14T01:35:06;100230.09;;;19.97;36.57
37694;BME280;23531;50.122;8.644;2023-06-14T01:37:07;100234.44;;;19.93;36.91
37694;BME280;23531;50.122;8.644;2023-06-14T01:39:11;100230.88;;;20.03;36.47
37694;BME280;23531;50.122;8.644;2023-06-14T01:41:14;100233.06;;;20.01;36.57
37694;BME280;23531;50.122;8.644;2023-06-14T01:43:16;100229.84;;;19.83;37.06
37694;BME280;23531;50.122;8.644;2023-06-14T01:45:18;100230.91;;;19.87;36.46
37694;BME280;23531;50.122;8.644;2023-06-14T01:47:19;100235.53;;;19.87;36.94
37694;BME280;23531;50.122;8.644;2023-06-14T01:49:21;100231.44;;;19.94;36.63
37694;BME280;23531;50.122;8.644;2023-06-14T01:51:22;100242.38;;;19.84;36.57
37694;BME280;23531;50.122;8.644;2023-06-14T01:53:23;100236.94;;;19.84;36.95
37694;BME280;23531;50.122;8.644;2023-06-14T01:55:26;100225.50;;;19.72;36.83
37694;BME280;23531;50.122;8.644;2023-06-14T01:57:27;100236.13;;;19.69;37.66
37694;BME280;23531;50.122;8.644;2023-06-14T01:59:29;100232.88;;;19.62;37.56
37694;BME280;23531;50.122;8.644;2023-06-14T02:01:31;100236.13;;;19.53;36.90
37694;BME280;23531;50.122;8.644;2023-06-14T02:03:34;100235.28;;;19.43;38.14
37694;BME280;23531;50.122;8.644;2023-06-14T02:05:38;100235.56;;;19.41;38.68
37694;BME280;23531;50.122;8.644;2023-06-14T02:07:39;100232.03;;;19.46;38.23
37694;BME280;23531;50.122;8.644;2023-06-14T02:09:41;100235.31;;;19.53;37.76
37694;BME280;23531;50.122;8.644;2023-06-14T02:11:43;100236.44;;;19.52;38.35
37694;BME280;23531;50.122;8.644;2023-06-14T02:13:45;100244.56;;;19.47;38.58
37694;BME280;23531;50.122;8.644;2023-06-14T02:15:46;100239.69;;;19.54;38.14
37694;BME280;23531;50.122;8.644;2023-06-14T02:17:51;100237.78;;;19.49;37.88
37694;BME280;23531;50.122;8.644;2023-06-14T02:19:52;100236.44;;;19.52;38.38
37694;BME280;23531;50.122;8.644;2023-06-14T02:21:53;100237.47;;;19.36;38.94
37694;BME280;23531;50.122;8.644;2023-06-14T02:23:54;100243.19;;;19.44;38.44
37694;BME280;23531;50.122;8.644;2023-06-14T02:25:56;100240.22;;;19.41;38.33
37694;BME280;23531;50.122;8.644;2023-06-14T02:27:58;100239.91;;;19.42;38.33
37694;BME280;23531;50.122;8.644;2023-06-14T02:30:00;100238.00;;;19.43;38.31
37694;BME280;23531;50.122;8.644;2023-06-14T02:32:01;100241.31;;;19.30;37.79
37694;BME280;23531;50.122;8.644;2023-06-14T02:34:02;100245.09;;;19.18;38.41
37694;BME280;23531;50.122;8.644;2023-06-14T02:36:04;100238.56;;;19.25;38.27
37694;BME280;23531;50.122;8.644;2023-06-14T02:38:05;100250.53;;;19.23;38.55
37694;BME280;23531;50.122;8.644;2023-06-14T02:40:07;100247.84;;;19.18;38.72
37694;BME280;23531;50.122;8.644;2023-06-14T02:42:09;100250.56;;;19.29;38.43
37694;BME280;23531;50.122;8.644;2023-06-14T02:44:12;100250.56;;;19.29;38.49
37694;BME280;23531;50.122;8.644;2023-06-14T02:46:14;100250.56;;;19.29;38.83
37694;BME280;23531;50.122;8.644;2023-06-14T02:48:16;100244.81;;;19.10;39.20
37694;BME280;23531;50.122;8.644;2023-06-14T02:50:17;100251.63;;;19.12;38.76
37694;BME280;23531;50.122;8.644;2023-06-14T02:52:21;100248.63;;;19.14;38.71
37694;BME280;23531;50.122;8.644;2023-06-14T02:54:25;100251.66;;;19.17;38.48
37694;BME280;23531;50.122;8.644;2023-06-14T02:56:26;100251.34;;;19.09;37.99
37694;BME280;23531;50.122;8.644;2023-06-14T02:58:27;100257.88;;;19.08;38.12
37694;BME280;23531;50.122;8.644;2023-06-14T03:00:30;100252.16;;;19.04;38.93
37694;BME280;23531;50.122;8.644;2023-06-14T03:02:32;100253.53;;;19.12;38.74
37694;BME280;23531;50.122;8.644;2023-06-14T03:04:33;100266.28;;;18.96;39.52
37694;BME280;23531;50.122;8.644;2023-06-14T03:06:37;100261.88;;;18.75;39.75
37694;BME280;23531;50.122;8.644;2023-06-14T03:08:39;100263.03;;;18.89;39.30
37694;BME280;23531;50.122;8.644;2023-06-14T03:10:41;100264.69;;;18.95;38.89
37694;BME280;23531;50.122;8.644;2023-06-14T03:12:43;100271.75;;;18.91;39.26
37694;BME280;23531;50.122;8.644;2023-06-14T03:14:44;100274.22;;;18.93;38.55
37694;BME280;23531;50.122;8.644;2023-06-14T03:16:48;100270.91;;;18.85;39.35
37694;BME280;23531;50.122;8.644;2023-06-14T03:18:50;100273.34;;;18.77;39.49
37694;BME280;23531;50.122;8.644;2023-06-14T03:20:51;100273.59;;;18.75;39.24
37694;BME280;23531;50.122;8.644;2023-06-14T03:22:54;100278.78;;;18.72;39.45
37694;BME280;23531;50.122;8.644;2023-06-14T03:24:55;100280.94;;;18.70;39.75
37694;BME280;23531;50.122;8.644;2023-06-14T03:26:56;100291.31;;;18.73;38.69
37694;BME280;23531;50.122;8.644;2023-06-14T03:28:57;100280.38;;;18.68;39.57
37694;BME280;23531;50.122;8.644;2023-06-14T03:30:59;100286.09;;;18.66;39.03
37694;BME280;23531;50.122;8.644;2023-06-14T03:33:03;100292.94;;;18.69;39.31
37694;BME280;23531;50.122;8.644;2023-06-14T03:35:05;100292.38;;;18.62;39.25
37694;BME280;23531;50.122;8.644;2023-06-14T03:37:06;100301.88;;;18.59;39.64
37694;BME280;23531;50.122;8.644;2023-06-14T03:39:08;100297.44;;;18.48;40.28
37694;BME280;23531;50.122;8.644;2023-06-14T03:41:09;100305.03;;;18.46;40.51
37694;BME280;23531;50.122;8.644;2023-06-14T03:43:10;100306.38;;;18.38;40.19
37694;BME280;23531;50.122;8.644;2023-06-14T03:45:11;100306.94;;;18.45;39.63
37694;BME280;23531;50.122;8.644;2023-06-14T03:47:13;100306.69;;;18.47;39.63
37694;BME280;23531;50.122;8.644;2023-06-14T03:49:16;100307.50;;;18.47;40.76
37694;BME280;23531;50.122;8.644;2023-06-14T03:51:17;100315.06;;;18.40;40.80
37694;BME280;23531;50.122;8.644;2023-06-14T03:53:19;100311.81;;;18.38;40.72
37694;BME280;23531;50.122;8.644;2023-06-14T03:55:20;100313.16;;;18.36;40.60
37694;BME280;23531;50.122;8.644;2023-06-14T03:57:22;100320.00;;;18.43;40.20
37694;BME280;23531;50.122;8.644;2023-06-14T03:59:24;100320.81;;;18.44;40.07
37694;BME280;23531;50.122;8.644;2023-06-14T04:01:25;100321.63;;;18.44;40.29
37694;BME280;23531;50.122;8.644;2023-06-14T04:03:29;100317.78;;;18.40;39.84
37694;BME280;23531;50.122;8.644;2023-06-14T04:05:33;100324.88;;;18.36;39.42
37694;BME280;23531;50.122;8.644;2023-06-14T04:07:36;100323.19;;;18.30;41.25
37694;BME280;23531;50.122;8.644;2023-06-14T04:09:39;100329.13;;;18.22;41.02
37694;BME280;23531;50.122;8.644;2023-06-14T04:11:41;100328.88;;;18.29;40.72
37694;BME280;23531;50.122;8.644;2023-06-14T04:13:42;100327.53;;;18.26;40.72
37694;BME280;23531;50.122;8.644;2023-06-14T04:15:43;100331.84;;;18.17;41.97
37694;BME280;23531;50.122;8.644;2023-06-14T04:17:45;100331.03;;;18.22;40.35
37694;BME280;23531;50.122;8.644;2023-06-14T04:19:47;100334.91;;;18.31;40.82
37694;BME280;23531;50.122;8.644;2023-06-14T04:21:50;100340.88;;;18.28;40.78
37694;BME280;23531;50.122;8.644;2023-06-14T04:23:51;100338.69;;;18.25;41.44
37694;BME280;23531;50.122;8.644;2023-06-14T04:25:53;100337.34;;;18.27;41.49
37694;BME280;23531;50.122;8.644;2023-06-14T04:27:54;100346.53;;;18.16;42.25
37694;BME280;23531;50.122;8.644;2023-06-14T04:29:55;100335.41;;;18.23;41.08
37694;BME280;23531;50.122;8.644;2023-06-14T04:31:58;100341.41;;;18.30;41.68
37694;BME280;23531;50.122;8.644;2023-06-14T04:34:00;100346.59;;;18.31;41.34
37694;BME280;23531;50.122;8.644;2023-06-14T04:36:05;100349.66;;;18.40;41.00
37694;BME280;23531;50.122;8.644;2023-06-14T04:38:09;100350.22;;;18.42;41.21
37694;BME280;23531;50.122;8.644;2023-06-14T04:40:10;100351.91;;;18.48;40.86
37694;BME280;23531;50.122;8.644;2023-06-14T04:42:11;100362.38;;;18.29;41.41
37694;BME280;23531;50.122;8.644;2023-06-14T04:44:14;100357.56;;;18.41;41.75
37694;BME280;23531;50.122;8.644;2023-06-14T04:46:17;100360.84;;;18.43;41.47
37694;BME280;23531;50.122;8.644;2023-06-14T04:48:18;100351.59;;;18.44;41.56
37694;BME280;23531;50.122;8.644;2023-06-14T04:50:20;100357.03;;;18.39;41.23
37694;BME280;23531;50.122;8.644;2023-06-14T04:52:22;100352.94;;;18.42;41.70
37694;BME280;23531;50.122;8.644;2023-06-14T04:54:27;100357.75;;;18.30;42.69
37694;BME280;23531;50.122;8.644;2023-06-14T04:56:31;100361.28;;;18.25;42.38
37694;BME280;23531;50.122;8.644;2023-06-14T04:58:32;100365.03;;;18.19;43.15
37694;BME280;23531;50.122;8.644;2023-06-14T05:00:34;100367.00;;;18.29;41.69
37694;BME280;23531;50.122;8.644;2023-06-14T05:02:35;100369.19;;;18.27;42.59
37694;BME280;23531;50.122;8.644;2023-06-14T05:04:37;100369.19;;;18.27;42.87
37694;BME280;23531;50.122;8.644;2023-06-14T05:06:39;100368.44;;;18.36;42.45
37694;BME280;23531;50.122;8.644;2023-06-14T05:08:41;100373.88;;;18.41;42.57
37694;BME280;23531;50.122;8.644;2023-06-14T05:10:43;100374.97;;;18.40;42.42
37694;BME280;23531;50.122;8.644;2023-06-14T05:12:44;100377.38;;;18.32;41.96
37694;BME280;23531;50.122;8.644;2023-06-14T05:14:46;100374.09;;;18.30;42.82
37694;BME280;23531;50.122;8.644;2023-06-14T05:16:47;100376.59;;;18.36;42.59
37694;BME280;23531;50.122;8.644;2023-06-14T05:18:48;100384.06;;;18.19;43.95
37694;BME280;23531;50.122;8.644;2023-06-14T05:20:50;100376.72;;;18.14;43.73
37694;BME280;23531;50.122;8.644;2023-06-14T05:22:52;100381.91;;;18.21;44.02
37694;BME280;23531;50.122;8.644;2023-06-14T05:24:53;100374.94;;;18.35;43.01
37694;BME280;23531;50.122;8.644;2023-06-14T05:26:56;100381.03;;;18.47;42.88
37694;BME280;23531;50.122;8.644;2023-06-14T05:28:57;100386.56;;;18.58;41.67
37694;BME280;23531;50.122;8.644;2023-06-14T05:31:00;100390.91;;;18.59;42.24
37694;BME280;23531;50.122;8.644;2023-06-14T05:33:01;100393.66;;;18.59;42.25
37694;BME280;23531;50.122;8.644;2023-06-14T05:35:04;100391.09;;;18.47;43.59
37694;BME280;23531;50.122;8.644;2023-06-14T05:37:05;100388.88;;;18.39;44.34
37694;BME280;23531;50.122;8.644;2023-06-14T05:39:07;100394.06;;;18.45;43.85
37694;BME280;23531;50.122;8.644;2023-06-14T05:41:09;100389.84;;;18.60;42.43
37694;BME280;23531;50.122;8.644;2023-06-14T05:43:11;100394.53;;;18.69;41.64
37694;BME280;23531;50.122;8.644;2023-06-14T05:45:13;100388.00;;;18.75;42.37
37694;BME280;23531;50.122;8.644;2023-06-14T05:47:15;100389.91;;;18.75;42.18
37694;BME280;23531;50.122;8.644;2023-06-14T05:49:17;100392.91;;;18.73;42.16
37694;BME280;23531;50.122;8.644;2023-06-14T05:51:18;100399.44;;;18.72;42.91
37694;BME280;23531;50.122;8.644;2023-06-14T05:53:20;100399.09;;;18.64;43.91
37694;BME280;23531;50.122;8.644;2023-06-14T05:55:21;100401.00;;;18.58;43.70
37694;BME280;23531;50.122;8.644;2023-06-14T05:57:22;100399.97;;;18.69;43.74
37694;BME280;23531;50.122;8.644;2023-06-14T05:59:25;100413.84;;;18.68;43.41
37694;BME280;23531;50.122;8.644;2023-06-14T06:01:26;100410.28;;;18.62;43.79
37694;BME280;23531;50.122;8.644;2023-06-14T06:03:27;100412.63;;;18.54;44.32
37694;BME280;23531;50.122;8.644;2023-06-14T06:05:30;100414.97;;;18.72;43.41
37694;BME280;23531;50.122;8.644;2023-06-14T06:07:31;100417.75;;;18.87;42.80
37694;BME280;23531;50.122;8.644;2023-06-14T06:09:32;100410.16;;;18.89;43.67
37694;BME280;23531;50.122;8.644;2023-06-14T06:11:34;100421.34;;;18.98;42.52
37694;BME280;23531;50.122;8.644;2023-06-14T06:13:35;100421.59;;;18.96;43.10
37694;BME280;23531;50.122;8.644;2023-06-14T06:15:38;100427.91;;;19.02;43.25
37694;BME280;23531;50.122;8.644;2023-06-14T06:17:40;100424.84;;;18.88;43.89
37694;BME280;23531;50.122;8.644;2023-06-14T06:19:41;100431.16;;;18.57;44.60
37694;BME280;23531;50.122;8.644;2023-06-14T06:21:42;100426.56;;;18.57;44.70
37694;BME280;23531;50.122;8.644;2023-06-14T06:23:44;100427.25;;;18.79;44.01
37694;BME280;23531;50.122;8.644;2023-06-14T06:25:45;100435.16;;;18.81;44.24
37694;BME280;23531;50.122;8.644;2023-06-14T06:27:46;100427.97;;;18.65;44.71
37694;BME280;23531;50.122;8.644;2023-06-14T06:29:47;100436.00;;;18.81;43.60
37694;BME280;23531;50.122;8.644;2023-06-14T06:31:51;100430.09;;;19.00;43.44
37694;BME280;23531;50.122;8.644;2023-06-14T06:33:52;100430.28;;;18.88;43.83
37694;BME280;23531;50.122;8.644;2023-06-14T06:35:54;100429.72;;;18.86;43.55
37694;BME280;23531;50.122;8.644;2023-06-14T06:37:55;100431.38;;;18.82;44.29
37694;BME280;23531;50.122;8.644;2023-06-14T06:39:57;100427.63;;;18.93;43.83
37694;BME280;23531;50.122;8.644;2023-06-14T06:41:58;100432.88;;;19.15;42.75
37694;BME280;23531;50.122;8.644;2023-06-14T06:43:59;100424.19;;;19.18;43.47
37694;BME280;23531;50.122;8.644;2023-06-14T06:46:01;100438.94;;;19.27;43.20
37694;BME280;23531;50.122;8.644;2023-06-14T06:48:04;100439.22;;;19.36;42.73
37694;BME280;23531;50.122;8.644;2023-06-14T06:50:05;100433.53;;;19.37;42.57
37694;BME280;23531;50.122;8.644;2023-06-14T06:52:07;100434.34;;;19.38;42.54
37694;BME280;23531;50.122;8.644;2023-06-14T06:54:09;100440.34;;;19.45;42.66
37694;BME280;23531;50.122;8.644;2023-06-14T06:56:10;100438.13;;;19.27;43.54
37694;BME280;23531;50.122;8.644;2023-06-14T06:58:12;100433.75;;;19.26;43.89
37694;BME280;23531;50.122;8.644;2023-06-14T07:00:13;100442.53;;;19.43;43.64
37694;BME280;23531;50.122;8.644;2023-06-14T07:02:15;100440.50;;;19.96;42.92
37694;BME280;23531;50.122;8.644;2023-06-14T07:04:18;100447.03;;;20.65;40.79
37694;BME280;23531;50.122;8.644;2023-06-14T07:06:20;100444.72;;;21.28;39.43
37694;BME280;23531;50.122;8.644;2023-06-14T07:08:22;100440.78;;;21.99;38.89
37694;BME280;23531;50.122;8.644;2023-06-14T07:10:23;100438.69;;;22.20;38.77
37694;BME280;23531;50.122;8.644;2023-06-14T07:12:25;100434.81;;;22.84;38.00
37694;BME280;23531;50.122;8.644;2023-06-14T07:14:27;100436.03;;;23.63;37.09
37694;BME280;23531;50.122;8.644;2023-06-14T07:16:29;100430.91;;;24.12;34.26
37694;BME280;23531;50.122;8.644;2023-06-14T07:18:30;100443.78;;;24.63;34.65
37694;BME280;23531;50.122;8.644;2023-06-14T07:20:33;100438.88;;;24.92;31.46
37694;BME280;23531;50.122;8.644;2023-06-14T07:22:34;100436.50;;;25.27;33.69
37694;BME280;23531;50.122;8.644;2023-06-14T07:24:35;100442.41;;;25.61;30.72
37694;BME280;23531;50.122;8.644;2023-06-14T07:26:40;100428.91;;;25.60;29.86
37694;BME280;23531;50.122;8.644;2023-06-14T07:28:41;100440.09;;;25.77;29.81
37694;BME280;23531;50.122;8.644;2023-06-14T07:30:45;100436.44;;;25.54;30.59
37694;BME280;23531;50.122;8.644;2023-06-14T07:32:46;100438.69;;;26.47;31.04
37694;BME280;23531;50.122;8.644;2023-06-14T07:34:47;100437.38;;;27.06;30.02
37694;BME280;23531;50.122;8.644;2023-06-14T07:36:50;100440.81;;;27.11;30.11
37694;BME280;23531;50.122;8.644;2023-06-14T07:38:51;100446.00;;;27.78;27.51
37694;BME280;23531;50.122;8.644;2023-06-14T07:40:52;100438.19;;;28.06;27.82
37694;BME280;23531;50.122;8.644;2023-06-14T07:42:54;100434.97;;;27.96;27.74
37694;BME280;23531;50.122;8.644;2023-06-14T07:44:55;100439.47;;;28.35;28.13
37694;BME280;23531;50.122;8.644;2023-06-14T07:46:56;100429.41;;;28.94;27.68
37694;BME280;23531;50.122;8.644;2023-06-14T07:48:58;100438.09;;;29.13;26.92
37694;BME280;23531;50.122;8.644;2023-06-14T07:50:59;100433.09;;;29.07;27.26
37694;BME280;23531;50.122;8.644;2023-06-14T07:53:03;100426.38;;;28.70;26.98
37694;BME280;23531;50.122;8.644;2023-06-14T07:55:04;100434.16;;;28.85;28.94
37694;BME280;23531;50.122;8.644;2023-06-14T07:57:06;100416.19;;;29.00;28.04
37694;BME280;23531;50.122;8.644;2023-06-14T07:59:08;100427.38;;;29.12;28.02
37694;BME280;23531;50.122;8.644;2023-06-14T08:01:10;100423.88;;;28.94;27.44
37694;BME280;23531;50.122;8.644;2023-06-14T08:03:11;100430.75;;;28.71;29.90
37694;BME280;23531;50.122;8.644;2023-06-14T08:05:13;100429.34;;;28.56;27.98
37694;BME280;23531;50.122;8.644;2023-06-14T08:07:14;100438.19;;;28.06;28.45
37694;BME280;23531;50.122;8.644;2023-06-14T08:09:17;100438.53;;;27.70;28.83
37694;BME280;23531;50.122;8.644;2023-06-14T08:11:18;100437.38;;;26.97;28.39
37694;BME280;23531;50.122;8.644;2023-06-14T08:13:19;100445.06;;;26.87;28.95
37694;BME280;23531;50.122;8.644;2023-06-14T08:15:20;100441.09;;;26.17;29.50
37694;BME280;23531;50.122;8.644;2023-06-14T08:17:22;100444.38;;;25.83;30.17
37694;BME280;23531;50.122;8.644;2023-06-14T08:19:23;100444.03;;;25.21;30.50
37694;BME280;23531;50.122;8.644;2023-06-14T08:21:24;100428.34;;;25.08;31.12
37694;BME280;23531;50.122;8.644;2023-06-14T08:23:29;100434.88;;;24.99;31.19
37694;BME280;23531;50.122;8.644;2023-06-14T08:25:32;100431.41;;;25.07;31.09
37694;BME280;23531;50.122;8.644;2023-06-14T08:27:33;100426.16;;;24.64;31.12
37694;BME280;23531;50.122;8.644;2023-06-14T08:29:34;100434.19;;;24.47;31.78
37694;BME280;23531;50.122;8.644;2023-06-14T08:31:36;100432.44;;;24.18;31.33
37694;BME280;23531;50.122;8.644;2023-06-14T08:33:37;100426.22;;;24.13;32.03
37694;BME280;23531;50.122;8.644;2023-06-14T08:35:39;100425.31;;;24.17;32.29
37694;BME280;23531;50.122;8.644;2023-06-14T08:37:40;100428.31;;;23.83;32.59
37694;BME280;23531;50.122;8.644;2023-06-14T08:39:42;100444.44;;;23.90;31.60
37694;BME280;23531;50.122;8.644;2023-06-14T08:41:45;100432.91;;;23.88;32.25
37694;BME280;23531;50.122;8.644;2023-06-14T08:43:47;100430.09;;;23.93;32.33
37694;BME280;23531;50.122;8.644;2023-06-14T08:45:49;100432.16;;;23.82;32.91
37694;BME280;23531;50.122;8.644;2023-06-14T08:47:53;100435.19;;;23.43;33.46
37694;BME280;23531;50.122;8.644;2023-06-14T08:49:57;100435.84;;;23.35;33.55
37694;BME280;23531;50.122;8.644;2023-06-14T08:52:00;100431.84;;;23.46;32.94
37694;BME280;23531;50.122;8.644;2023-06-14T08:54:02;100431.25;;;23.49;32.95
37694;BME280;23531;50.122;8.644;2023-06-14T08:56:04;100438.28;;;23.37;32.57
37694;BME280;23531;50.122;8.644;2023-06-14T08:58:09;100432.09;;;23.26;33.33
37694;BME280;23531;50.122;8.644;2023-06-14T09:00:14;100440.41;;;23.21;33.92
37694;BME280;23531;50.122;8.644;2023-06-14T09:02:16;100450.91;;;23.14;33.13
37694;BME280;23531;50.122;8.644;2023-06-14T09:04:22;100440.06;;;23.04;33.91
37694;BME280;23531;50.122;8.644;2023-06-14T09:06:24;100440.13;;;22.99;33.84
37694;BME280;23531;50.122;8.644;2023-06-14T09:08:25;100440.88;;;23.04;33.74
37694;BME280;23531;50.122;8.644;2023-06-14T09:10:27;100452.91;;;23.08;33.99
37694;BME280;23531;50.122;8.644;2023-06-14T09:12:28;100446.44;;;22.70;34.72
37694;BME280;23531;50.122;8.644;2023-06-14T09:14:33;100453.53;;;22.71;35.02
37694;BME280;23531;50.122;8.644;2023-06-14T09:16:38;100453.84;;;22.99;34.62
37694;BME280;23531;50.122;8.644;2023-06-14T09:18:40;100454.13;;;22.97;34.29
37694;BME280;23531;50.122;8.644;2023-06-14T09:20:43;100448.59;;;23.02;34.13
37694;BME280;23531;50.122;8.644;2023-06-14T09:22:47;100443.63;;;23.04;33.95
37694;BME280;23531;50.122;8.644;2023-06-14T09:24:48;100443.84;;;23.08;34.23
37694;BME280;23531;50.122;8.644;2023-06-14T09:26:50;100447.94;;;23.10;34.26
37694;BME280;23531;50.122;8.644;2023-06-14T09:28:51;100451.03;;;23.04;33.40
37694;BME280;23531;50.122;8.644;2023-06-14T09:30:54;100462.34;;;22.97;33.24
37694;BME280;23531;50.122;8.644;2023-06-14T09:32:55;100463.75;;;22.95;33.45
37694;BME280;23531;50.122;8.644;2023-06-14T09:34:57;100458.63;;;23.12;33.25
37694;BME280;23531;50.122;8.644;2023-06-14T09:36:59;100454.78;;;23.13;33.47
37694;BME280;23531;50.122;8.644;2023-06-14T09:39:00;100466.84;;;23.12;33.67
37694;BME280;23531;50.122;8.644;2023-06-14T09:41:06;100463.00;;;23.13;33.91
37694;BME280;23531;50.122;8.644;2023-06-14T09:43:07;100461.69;;;23.29;33.64
37694;BME280;23531;50.122;8.644;2023-06-14T09:45:10;100466.97;;;23.02;33.04
37694;BME280;23531;50.122;8.644;2023-06-14T09:47:15;100464.28;;;22.97;33.61
37694;BME280;23531;50.122;8.644;2023-06-14T09:49:16;100460.59;;;23.06;33.40
37694;BME280;23531;50.122;8.644;2023-06-14T09:51:17;100462.78;;;23.09;33.67
37694;BME280;23531;50.122;8.644;2023-06-14T09:53:20;100473.91;;;23.18;33.38
37694;BME280;23531;50.122;8.644;2023-06-14T09:55:22;100464.44;;;23.29;33.11
37694;BME280;23531;50.122;8.644;2023-06-14T09:57:25;100469.22;;;23.42;33.06
37694;BME280;23531;50.122;8.644;2023-06-14T09:59:26;100461.69;;;23.29;32.90
37694;BME280;23531;50.122;8.644;2023-06-14T10:01:31;100464.94;;;23.36;32.91
37694;BME280;23531;50.122;8.644;2023-06-14T10:03:35;100464.28;;;22.97;32.40
37694;BME280;23531;50.122;8.644;2023-06-14T10:05:37;100459.03;;;23.00;33.01
37694;BME280;23531;50.122;8.644;2023-06-14T10:07:41;100461.94;;;23.09;32.51
37694;BME280;23531;50.122;8.644;2023-06-14T10:09:43;100445.66;;;23.17;32.44
37694;BME280;23531;50.122;8.644;2023-06-14T10:11:49;100455.28;;;23.15;32.90
37694;BME280;23531;50.122;8.644;2023-06-14T10:13:51;100462.31;;;23.02;33.01
37694;BME280;23531;50.122;8.644;2023-06-14T10:15:54;100456.38;;;23.14;33.16
37694;BME280;23531;50.122;8.644;2023-06-14T10:17:59;100453.16;;;23.12;33.19
37694;BME280;23531;50.122;8.644;2023-06-14T10:20:06;100454.72;;;23.18;33.05
37694;BME280;23531;50.122;8.644;2023-06-14T10:22:12;100448.56;;;23.26;32.48
37694;BME280;23531;50.122;8.644;2023-06-14T10:24:16;100438.19;;;23.23;32.48
37694;BME280;23531;50.122;8.644;2023-06-14T10:26:19;100437.38;;;23.23;32.94
37694;BME280;23531;50.122;8.644;2023-06-14T10:28:22;100440.22;;;23.36;32.73
37694;BME280;23531;50.122;8.644;2023-06-14T10:30:25;100440.84;;;23.28;33.39
37694;BME280;23531;50.122;8.644;2023-06-14T10:32:26;100453.97;;;22.89;33.42
37694;BME280;23531;50.122;8.644;2023-06-14T10:34:29;100451.75;;;22.91;33.88
37694;BME280;23531;50.122;8.644;2023-06-14T10:36:32;100436.81;;;23.02;34.08
37694;BME280;23531;50.122;8.644;2023-06-14T10:38:35;100449.50;;;23.16;34.00